createdAt,value
2023-07-18T00:00:22.849Z,4.27
2023-07-18T00:06:17.949Z,4.27
2023-07-18T00:11:39.183Z,4.23
2023-07-18T00:16:56.046Z,4.23
2023-07-18T00:22:12.172Z,4.25
2023-07-18T00:27:28.944Z,4.25
2023-07-18T00:32:48.481Z,4.23
2023-07-18T00:38:05.741Z,4.23
2023-07-18T00:43:21.904Z,4.25
2023-07-18T00:48:38.124Z,4.25
2023-07-18T00:53:54.526Z,4.23
2023-07-18T00:59:10.303Z,4.23
2023-07-18T01:05:12.043Z,4.24
2023-07-18T01:10:28.194Z,4.22
2023-07-18T01:15:47.096Z,4.22
2023-07-18T01:21:07.024Z,4.28
2023-07-18T01:26:56.299Z,4.28
2023-07-18T01:32:15.034Z,4.23
2023-07-18T01:37:33.764Z,4.23
2023-07-18T01:42:55.134Z,4.23
2023-07-18T01:48:11.558Z,4.23
2023-07-18T01:53:32.761Z,4.23
2023-07-18T01:59:19.359Z,4.23
2023-07-18T02:01:46.734Z,4.23
2023-07-18T02:06:56.306Z,4.22
2023-07-18T02:12:12.501Z,4.23
2023-07-18T02:18:19.343Z,4.23
2023-07-18T02:23:37.887Z,4.23
2023-07-18T02:28:54.304Z,4.23
2023-07-18T02:34:09.612Z,4.23
2023-07-18T02:39:26.054Z,4.23
2023-07-18T02:44:42.617Z,4.21
2023-07-18T02:45:57.767Z,4.21
2023-07-18T02:51:05.932Z,4.21
2023-07-18T02:56:24.627Z,4.21
2023-07-18T03:01:42.384Z,4.22
2023-07-18T03:06:59.492Z,4.22
2023-07-18T03:12:15.758Z,4.22
2023-07-18T03:17:38.514Z,4.22
2023-07-18T03:22:58.455Z,4.22
2023-07-18T03:28:17.601Z,4.22
2023-07-18T03:33:56.147Z,4.21
2023-07-18T03:39:38.924Z,4.21
2023-07-18T03:45:08.829Z,4.21
2023-07-18T03:50:25.051Z,4.2
2023-07-18T03:55:47.053Z,4.2
2023-07-18T04:01:09.367Z,4.19
2023-07-18T04:06:27.219Z,4.19
2023-07-18T04:12:34.421Z,4.21
2023-07-18T04:15:29.939Z,4.21
2023-07-18T04:20:32.305Z,4.18
2023-07-18T04:25:52.489Z,4.18
2023-07-18T04:31:12.558Z,4.22
2023-07-18T04:36:28.076Z,4.22
2023-07-18T04:41:56.375Z,4.2
2023-07-18T04:47:01.633Z,4.2
2023-07-18T04:52:17.720Z,4.19
2023-07-18T04:57:33.766Z,4.19
2023-07-18T05:02:50.940Z,4.21
2023-07-18T05:08:42.756Z,4.21
2023-07-18T05:13:59.453Z,4.22
2023-07-18T05:19:15.542Z,4.22
2023-07-18T05:24:32.339Z,4.22
2023-07-18T05:29:50.148Z,4.22
2023-07-18T05:35:06.611Z,4.21
2023-07-18T05:40:24.890Z,4.21
2023-07-18T05:45:40.108Z,4.31
2023-07-18T05:50:55.030Z,4.37
2023-07-18T05:56:10.573Z,4.37
2023-07-18T06:01:27.699Z,4.25
2023-07-18T06:06:45.625Z,4.25
2023-07-18T06:11:58.429Z,4.3
2023-07-18T06:17:15.297Z,4.3
2023-07-18T06:22:29.618Z,4.34
2023-07-18T06:27:45.766Z,4.34
2023-07-18T06:33:02.688Z,4.32
2023-07-18T06:38:17.964Z,4.32
2023-07-18T06:43:36.658Z,4.33
2023-07-18T06:48:53.844Z,4.33
2023-07-18T06:50:41.852Z,4.33
2023-07-18T06:55:51.715Z,4.31
2023-07-18T07:01:48.501Z,4.34
2023-07-18T07:07:06.142Z,4.34
2023-07-18T07:12:38.293Z,4.35
2023-07-18T07:17:42.828Z,4.35
2023-07-18T07:23:41.237Z,4.39
2023-07-18T07:28:58.172Z,4.39
2023-07-18T07:34:12.964Z,4.35
2023-07-18T07:39:28.381Z,4.35
2023-07-18T07:44:45.118Z,4.39
2023-07-18T07:52:26.557Z,4.36
2023-07-18T07:58:32.136Z,4.36
2023-07-18T08:03:41.921Z,4.36
2023-07-18T08:09:05.625Z,4.36
2023-07-18T08:14:16.332Z,4.39
2023-07-18T08:19:35.343Z,4.39
2023-07-18T08:23:17.286Z,4.39
2023-07-18T08:28:25.273Z,4.38
2023-07-18T08:33:44.686Z,4.37
2023-07-18T08:39:05.266Z,4.37
2023-07-18T08:44:18.924Z,4.38
2023-07-18T08:49:37.763Z,4.38
2023-07-18T08:54:51.455Z,4.41
2023-07-18T09:00:07.877Z,4.41
2023-07-18T09:05:27.713Z,4.45
2023-07-18T09:10:44.145Z,4.45
2023-07-18T09:15:59.706Z,4.42
2023-07-18T09:27:19.765Z,4.38
2023-07-18T09:32:47.522Z,4.4
2023-07-18T09:38:09.028Z,4.4
2023-07-18T09:43:24.614Z,4.42
2023-07-18T09:48:52.346Z,4.42
2023-07-18T09:53:56.160Z,4.42
2023-07-18T09:59:15.085Z,4.42
2023-07-18T10:04:29.781Z,4.44
2023-07-18T10:09:46.545Z,4.44
2023-07-18T10:15:05.056Z,4.43
2023-07-18T10:20:20.847Z,4.43
2023-07-18T10:25:36.968Z,4.44
2023-07-18T10:30:53.297Z,4.44
2023-07-18T10:36:17.376Z,4.48
2023-07-18T10:41:31.211Z,4.48
2023-07-18T10:46:49.379Z,4.48
2023-07-18T10:52:02.034Z,4.5
2023-07-18T10:57:18.389Z,4.5
2023-07-18T11:02:36.142Z,4.48
2023-07-18T11:11:05.707Z,4.48
2023-07-18T11:12:51.780Z,4.48
2023-07-18T11:18:00.918Z,4.52
2023-07-18T11:23:17.088Z,4.53
2023-07-18T11:28:57.261Z,4.53
2023-07-18T11:34:12.508Z,4.57
2023-07-18T11:39:30.875Z,4.57
2023-07-18T11:44:47.073Z,4.56
2023-07-18T11:50:03.884Z,4.56
2023-07-18T11:56:09.594Z,4.51
2023-07-18T12:03:57.898Z,4.57
2023-07-18T12:09:21.838Z,4.57
2023-07-18T12:11:10.415Z,4.57
2023-07-18T12:15:54.251Z,4.56
2023-07-18T12:21:16.399Z,4.56
2023-07-18T12:26:28.240Z,4.55
2023-07-18T12:31:42.801Z,4.55
2023-07-18T12:36:42.463Z,4.54
2023-07-18T12:41:58.116Z,4.54
2023-07-18T12:47:15.715Z,4.57
2023-07-18T12:52:32.410Z,4.57
2023-07-18T12:57:49.577Z,4.52
2023-07-18T13:03:05.952Z,4.53
2023-07-18T13:08:22.075Z,4.53
2023-07-18T13:13:40.401Z,4.56
2023-07-18T13:18:55.037Z,4.56
2023-07-18T13:24:11.836Z,4.52
2023-07-18T13:30:45.276Z,4.52
2023-07-18T13:32:26.318Z,4.52
2023-07-18T13:37:35.671Z,4.53
2023-07-18T13:42:54.398Z,4.54
2023-07-18T13:48:10.890Z,4.54
2023-07-18T13:53:25.459Z,4.55
2023-07-18T13:55:13.553Z,4.55
2023-07-18T14:00:27.083Z,4.55
2023-07-18T14:05:39.544Z,4.51
2023-07-18T14:11:23.816Z,4.51
2023-07-18T14:16:42.205Z,4.51
2023-07-18T14:21:57.492Z,4.51
2023-07-18T14:27:16.636Z,4.57
2023-07-18T14:32:32.537Z,4.57
2023-07-18T14:37:53.000Z,4.55
2023-07-18T14:43:10.787Z,4.54
2023-07-18T14:48:26.560Z,4.54
2023-07-18T14:53:45.319Z,4.56
2023-07-18T14:59:03.352Z,4.56
2023-07-18T15:05:02.419Z,4.53
2023-07-18T15:10:22.462Z,4.53
2023-07-18T15:15:39.372Z,4.56
2023-07-18T15:20:59.504Z,4.56
2023-07-18T15:26:14.920Z,4.55
2023-07-18T15:31:31.114Z,4.55
2023-07-18T15:36:49.014Z,4.53
2023-07-18T15:42:05.835Z,4.53
2023-07-18T15:47:24.738Z,4.56
2023-07-18T15:52:41.289Z,4.56
2023-07-18T15:57:56.825Z,4.59
2023-07-18T16:03:14.245Z,4.59
2023-07-18T16:08:36.861Z,4.6
2023-07-18T16:13:50.060Z,4.53
2023-07-18T16:19:06.547Z,4.53
2023-07-18T16:24:23.384Z,4.57
2023-07-18T16:29:39.871Z,4.57
2023-07-18T16:34:56.309Z,4.59
2023-07-18T16:40:28.472Z,4.59
2023-07-18T16:45:44.729Z,4.55
2023-07-18T16:51:04.060Z,4.55
2023-07-18T16:56:22.355Z,4.54
2023-07-18T17:01:36.873Z,4.54
2023-07-18T17:06:54.088Z,4.55
2023-07-18T17:12:09.998Z,4.55
2023-07-18T17:18:11.564Z,4.55
2023-07-18T17:24:09.568Z,4.55
2023-07-18T17:29:28.645Z,4.55
2023-07-18T17:34:44.820Z,4.57
2023-07-18T17:40:03.123Z,4.57
2023-07-18T17:45:15.190Z,4.55
2023-07-18T17:50:32.032Z,4.55
2023-07-18T17:51:45.651Z,4.55
2023-07-18T17:56:57.936Z,4.57
2023-07-18T18:02:12.654Z,4.57
2023-07-18T18:07:27.718Z,4.55
2023-07-18T18:13:10.008Z,4.55
2023-07-18T18:18:25.563Z,4.57
2023-07-18T18:23:42.309Z,4.57
2023-07-18T18:28:55.365Z,4.55
2023-07-18T18:34:13.153Z,4.55
2023-07-18T18:39:31.028Z,4.5
2023-07-18T18:44:45.740Z,4.56
2023-07-18T18:50:03.182Z,4.56
2023-07-18T18:55:33.686Z,4.52
2023-07-18T19:00:37.519Z,4.52
2023-07-18T19:05:53.509Z,4.54
2023-07-18T19:26:56.294Z,4.54
2023-07-18T19:32:16.678Z,4.48
2023-07-18T19:37:33.775Z,4.45
2023-07-18T19:42:51.856Z,4.45
2023-07-18T19:48:09.651Z,4.54
2023-07-18T19:53:26.758Z,4.54
2023-07-18T19:56:00.318Z,4.54
2023-07-18T20:01:09.469Z,4.48
2023-07-18T20:06:25.597Z,4.52
2023-07-18T20:11:40.499Z,4.52
2023-07-18T20:16:56.655Z,4.51
2023-07-18T20:22:13.489Z,4.51
2023-07-18T20:27:30.258Z,4.53
2023-07-18T20:32:46.689Z,4.53
2023-07-18T20:38:03.266Z,4.46
2023-07-18T20:43:20.004Z,4.46
2023-07-18T20:48:36.200Z,4.47
2023-07-18T20:53:52.980Z,4.47
2023-07-18T20:59:09.765Z,4.46
2023-07-18T21:04:27.241Z,4.46
2023-07-18T21:09:45.954Z,4.46
2023-07-18T21:15:02.742Z,4.46
2023-07-18T21:20:19.536Z,4.49
2023-07-18T21:25:36.509Z,4.49
2023-07-18T21:30:55.153Z,4.49
2023-07-18T21:36:22.756Z,4.46
2023-07-18T21:41:38.240Z,4.46
2023-07-18T21:46:53.997Z,4.44
2023-07-18T21:52:09.321Z,4.44
2023-07-18T21:57:25.075Z,4.43
2023-07-18T22:02:41.591Z,4.43
2023-07-18T22:07:57.820Z,4.47
2023-07-18T22:13:12.846Z,4.47
2023-07-18T22:18:29.626Z,4.48
2023-07-18T22:23:46.266Z,4.48
2023-07-18T22:29:02.416Z,4.48
2023-07-18T22:34:18.197Z,4.48
2023-07-18T22:39:43.271Z,4.51
2023-07-18T22:44:47.624Z,4.51
2023-07-18T22:50:04.519Z,4.46
2023-07-18T22:55:20.678Z,4.46
2023-07-18T23:00:37.656Z,4.45
2023-07-18T23:05:52.955Z,4.48
2023-07-18T23:11:15.562Z,4.48
2023-07-18T23:16:31.265Z,4.47
2023-07-18T23:22:15.364Z,4.47
2023-07-18T23:28:06.150Z,4.48
2023-07-18T23:33:26.120Z,4.48
2023-07-18T23:38:46.093Z,4.42
2023-07-18T23:44:07.427Z,4.42
2023-07-18T23:49:28.634Z,4.43
2023-07-18T23:55:21.933Z,4.43
